Time;durP1;ratioP1;P1;durP2;ratioP2;P2;SDS_P1;SDS_P2;PMS_P1;PMS_P2;Temp;Humidity;BMP_temperature;BMP_pressure;BME280_temperature;BME280_humidity;BME280_pressure;Samples;Min_cycle;Max_cycle;Signal;HPM_P1;HPM_P2
2021/12/16 00:07:29;;;;;;;15.02;6.47;;;;;;;6.77;100.00;102928.03;6276703;28;20693;-77
2021/12/16 00:10:36;;;;;;;14.85;6.57;;;;;;;6.73;100.00;102939.34;6263419;28;20504;-78
2021/12/16 00:30:42;;;;;;;14.55;5.55;;;;;;;6.70;100.00;102924.53;6251684;28;20496;-78
2021/12/16 00:33:41;;;;;;;13.95;6.15;;;;;;;6.67;100.00;102928.91;6251078;28;20042;-78
2021/12/16 00:36:44;;;;;;;16.75;6.15;;;;;;;6.68;100.00;102928.91;6251586;28;20049;-78
2021/12/16 00:39:47;;;;;;;17.45;6.93;;;;;;;6.71;100.00;102928.03;6251556;28;20045;-78
2021/12/16 00:42:52;;;;;;;15.43;6.80;;;;;;;6.72;100.00;102925.44;6251688;28;20081;-78
2021/12/16 00:46:10;;;;;;;17.75;6.80;;;;;;;6.66;100.00;102925.41;6251449;28;20046;-78
2021/12/16 00:49:31;;;;;;;17.73;5.88;;;;;;;6.60;100.00;102934.16;6251063;28;20088;-78
2021/12/16 00:55:55;;;;;;;11.60;5.00;;;;;;;6.48;100.00;102933.28;6249288;28;20047;-78
2021/12/16 00:58:58;;;;;;;18.35;6.20;;;;;;;6.43;100.00;102929.81;6251106;28;20049;-78
2021/12/16 01:02:11;;;;;;;18.65;7.68;;;;;;;6.46;100.00;102938.53;6251074;28;20056;-78
2021/12/16 01:05:49;;;;;;;16.08;6.45;;;;;;;6.52;100.00;102930.66;6250624;28;20063;-77
2021/12/16 01:35:40;;;;;;;17.67;7.05;;;;;;;6.57;100.00;102939.38;6250207;28;20049;-78
2021/12/16 01:39:19;;;;;;;23.45;8.75;;;;;;;6.57;100.00;102935.88;6249890;28;20049;-77
2021/12/16 01:42:33;;;;;;;26.65;8.32;;;;;;;6.58;100.00;102927.16;6262085;28;20055;-78
2021/12/16 01:45:59;;;;;;;23.80;9.25;;;;;;;6.56;100.00;102924.56;6251540;28;20427;-78
2021/12/16 01:49:15;;;;;;;17.38;7.65;;;;;;;6.56;100.00;102929.78;6260499;28;20133;-78
2021/12/16 01:55:46;;;;;;;20.58;7.88;;;;;;;6.66;100.00;102938.47;6251767;28;20501;-78
2021/12/16 01:58:49;;;;;;;;;;;;;;;6.71;100.00;102949.78;6249694;28;20045;-78
2021/12/16 02:01:52;;;;;;;24.85;8.00;;;;;;;6.73;100.00;102939.34;6249603;28;20059;-78
2021/12/16 02:05:11;;;;;;;20.27;8.68;;;;;;;6.79;100.00;102941.94;6262242;28;20048;-78
2021/12/16 02:08:21;;;;;;;17.80;7.95;;;;;;;6.87;100.00;102940.19;6273947;28;20514;-78
2021/12/16 02:11:44;;;;;;;23.55;8.15;;;;;;;6.86;100.00;102949.78;6274281;28;20044;-78
2021/12/16 02:28:14;;;;;;;31.00;9.65;;;;;;;7.02;100.00;102968.03;6261546;28;20042;-78
2021/12/16 02:31:45;;;;;;;21.55;8.95;;;;;;;7.01;100.00;102961.06;6256213;28;20099;-78
2021/12/16 02:35:00;;;;;;;26.00;9.10;;;;;;;7.02;100.00;102976.72;6256299;28;20056;-78
2021/12/16 02:38:05;;;;;;;29.83;10.40;;;;;;;7.04;100.00;102968.88;6256538;28;20042;-77
2021/12/16 02:41:07;;;;;;;19.02;8.20;;;;;;;7.05;100.00;102960.19;6256658;28;20049;-77
2021/12/16 02:44:23;;;;;;;27.23;9.43;;;;;;;7.06;100.00;102967.16;6256780;28;20045;-78
2021/12/16 02:50:43;;;;;;;23.25;8.70;;;;;;;7.06;100.00;102962.78;6256139;28;20045;-78
2021/12/16 02:53:49;;;;;;;25.83;9.15;;;;;;;7.07;100.00;102964.50;6256296;28;20507;-78
2021/12/16 02:56:50;;;;;;;22.05;9.68;;;;;;;7.11;100.00;102960.16;6257113;28;20531;-78
2021/12/16 02:59:53;;;;;;;23.05;9.02;;;;;;;7.12;100.00;102964.50;6256768;28;20054;-78
2021/12/16 03:02:54;;;;;;;29.13;9.40;;;;;;;7.14;100.00;102964.50;6257244;28;20077;-78
2021/12/16 03:05:58;;;;;;;22.85;8.18;;;;;;;7.14;100.00;102961.91;6257178;28;20053;-78
2021/12/16 03:09:05;;;;;;;22.58;9.95;;;;;;;7.16;100.00;102967.97;6256584;28;20151;-78
2021/12/16 03:12:31;;;;;;;19.52;8.55;;;;;;;7.16;100.00;102967.97;6256508;28;20049;-78
2021/12/16 03:15:53;;;;;;;24.40;9.90;;;;;;;7.18;100.00;102964.50;6256983;28;20049;-77
2021/12/16 03:19:10;;;;;;;33.83;10.73;;;;;;;7.19;100.00;102962.75;6267822;28;20048;-78
2021/12/16 03:22:23;;;;;;;20.90;8.40;;;;;;;7.24;100.00;102971.44;6272222;28;20049;-78
2021/12/16 03:25:37;;;;;;;27.60;10.50;;;;;;;7.20;100.00;102975.81;6280717;28;20048;-78
2021/12/16 03:32:14;;;;;;;18.55;8.68;;;;;;;7.21;100.00;102974.06;6256829;28;20428;-78
2021/12/16 03:35:31;;;;;;;24.02;9.82;;;;;;;7.20;100.00;102970.56;6255868;28;20060;-78
2021/12/16 03:38:34;;;;;;;26.42;10.63;;;;;;;7.24;100.00;102980.16;6260111;28;20049;-78
2021/12/16 03:41:37;;;;;;;23.90;9.55;;;;;;;7.21;100.00;102989.75;6258151;28;20056;-77
2021/12/16 03:44:52;;;;;;;32.00;12.35;;;;;;;7.21;100.00;102988.00;6268324;28;20045;-77
2021/12/16 03:47:53;;;;;;;21.25;8.77;;;;;;;7.21;100.00;102985.38;6260775;28;20045;-78
2021/12/16 03:50:55;;;;;;;26.55;8.82;;;;;;;7.21;100.00;102987.13;6275872;28;20052;-77
2021/12/16 03:54:00;;;;;;;26.98;9.48;;;;;;;7.20;100.00;102993.25;6267977;28;20053;-78
2021/12/16 03:57:07;;;;;;;19.98;9.00;;;;;;;7.21;100.00;103000.22;6265665;28;20137;-78
2021/12/16 04:00:12;;;;;;;24.60;9.80;;;;;;;7.19;100.00;102996.75;6249960;28;20356;-78
2021/12/16 04:03:14;;;;;;;27.25;8.98;;;;;;;7.20;100.00;103003.72;6250579;28;20045;-78
2021/12/16 04:06:15;;;;;;;25.50;9.85;;;;;;;7.20;100.00;102998.47;6265787;28;20056;-78
2021/12/16 04:09:18;;;;;;;24.08;9.13;;;;;;;7.20;100.00;103001.97;6271693;28;20056;-78
2021/12/16 04:12:24;;;;;;;23.08;8.93;;;;;;;7.26;100.00;103009.78;6244976;28;20052;-77
2021/12/16 04:15:26;;;;;;;33.30;10.00;;;;;;;7.31;100.00;103007.16;6251166;28;20053;-77
2021/12/16 04:18:27;;;;;;;25.80;9.75;;;;;;;7.32;100.00;103008.91;6258725;28;20048;-77
2021/12/16 04:21:29;;;;;;;20.48;8.65;;;;;;;7.36;100.00;103008.91;6249609;28;20053;-78
2021/12/16 04:24:31;;;;;;;25.35;11.07;;;;;;;7.41;100.00;103001.03;6249897;28;20124;-77
2021/12/16 04:27:35;;;;;;;24.25;9.45;;;;;;;7.42;100.00;102996.66;6249987;28;20057;-77
2021/12/16 04:30:37;;;;;;;31.88;10.05;;;;;;;7.48;100.00;103002.72;6249444;28;20050;-77
2021/12/16 04:33:39;;;;;;;25.15;10.25;;;;;;;7.46;100.00;103003.63;6249886;28;20052;-77
2021/12/16 04:36:41;;;;;;;26.88;10.15;;;;;;;7.49;100.00;103008.81;6248674;28;20053;-78
2021/12/16 04:39:44;;;;;;;27.45;10.05;;;;;;;7.50;100.00;103006.22;6249120;28;20048;-78
2021/12/16 04:42:49;;;;;;;22.35;10.23;;;;;;;7.47;100.00;103014.06;6249502;28;20421;-77
2021/12/16 04:45:51;;;;;;;23.65;10.70;;;;;;;7.48;100.00;103010.56;6249610;28;20057;-77
2021/12/16 04:48:56;;;;;;;23.33;9.18;;;;;;;7.48;100.00;103018.41;6249950;28;20078;-77
2021/12/16 04:52:01;;;;;;;26.83;9.93;;;;;;;7.50;100.00;103023.66;6248485;28;20515;-77
2021/12/16 04:55:03;;;;;;;33.33;10.90;;;;;;;7.55;100.00;103012.31;6248766;28;20056;-78
2021/12/16 04:58:06;;;;;;;29.75;11.80;;;;;;;7.51;100.00;103022.78;6246304;28;20053;-78
2021/12/16 05:01:07;;;;;;;24.42;9.30;;;;;;;7.51;100.00;103030.63;6246588;28;20053;-77
2021/12/16 05:04:09;;;;;;;22.80;10.00;;;;;;;7.48;100.00;103035.88;6247081;28;20049;-77
2021/12/16 05:07:11;;;;;;;25.88;11.43;;;;;;;7.49;100.00;103037.59;6248651;28;20050;-77
2021/12/16 05:10:14;;;;;;;31.05;10.70;;;;;;;7.48;100.00;103048.94;6248210;28;20413;-77
2021/12/16 05:13:19;;;;;;;28.38;10.68;;;;;;;7.46;100.00;103042.88;6249058;28;20138;-77
2021/12/16 05:16:22;;;;;;;25.08;9.85;;;;;;;7.47;100.00;103040.22;6248445;28;20428;-77
2021/12/16 05:19:23;;;;;;;19.83;9.40;;;;;;;7.45;100.00;103043.72;6248685;28;20048;-78
2021/12/16 05:25:57;;;;;;;22.42;10.05;;;;;;;7.43;100.00;103046.34;6248384;28;20573;-77
2021/12/16 05:29:00;;;;;;;26.13;10.02;;;;;;;7.44;100.00;103050.69;6248656;28;20481;-78
2021/12/16 05:32:01;;;;;;;23.10;8.98;;;;;;;7.47;100.00;103055.06;6248954;28;20497;-77
2021/12/16 05:35:03;;;;;;;25.50;9.98;;;;;;;7.50;100.00;103062.91;6248822;28;20053;-77
2021/12/16 05:38:05;;;;;;;27.98;9.75;;;;;;;7.51;100.00;103064.66;6248577;28;20053;-77
2021/12/16 05:41:11;;;;;;;26.85;10.20;;;;;;;7.52;100.00;103076.84;6254073;28;20045;-78
2021/12/16 05:44:14;;;;;;;23.25;9.15;;;;;;;7.49;100.00;103075.09;6262506;28;20060;-77
2021/12/16 05:47:15;;;;;;;33.15;10.50;;;;;;;7.51;100.00;103072.50;6269211;28;20045;-77
2021/12/16 05:50:18;;;;;;;30.70;10.93;;;;;;;7.51;100.00;103083.81;6264023;28;20049;-77
2021/12/16 05:53:20;;;;;;;26.83;10.70;;;;;;;7.49;100.00;103084.69;6268569;28;20049;-77
2021/12/16 05:56:22;;;;;;;29.05;12.40;;;;;;;7.55;100.00;103092.53;6256732;28;20072;-77
2021/12/16 05:59:24;;;;;;;36.88;10.30;;;;;;;7.53;100.00;103108.22;6273261;28;20045;-77
2021/12/16 06:02:26;;;;;;;29.90;11.00;;;;;;;7.51;100.00;103114.34;6272626;28;20055;-78
2021/12/16 06:05:27;;;;;;;32.38;10.07;;;;;;;7.51;100.00;103102.13;6268135;28;20049;-78
2021/12/16 06:08:29;;;;;;;24.30;11.13;;;;;;;7.53;100.00;103104.75;6264397;28;20053;-77
2021/12/16 06:11:32;;;;;;;25.83;10.30;;;;;;;7.52;100.00;103110.84;6250136;28;20049;-78
2021/12/16 06:14:49;;;;;;;29.40;10.77;;;;;;;7.52;100.00;103124.81;6257910;28;20049;-78
2021/12/16 06:27:50;;;;;;;33.30;12.60;;;;;;;7.51;100.00;103135.28;6267459;28;19917;-78
2021/12/16 06:30:53;;;;;;;30.92;10.68;;;;;;;7.54;100.00;103135.25;6267189;28;20134;-77
2021/12/16 06:33:55;;;;;;;25.17;10.63;;;;;;;7.53;100.00;103136.13;6271843;28;20053;-78
2021/12/16 06:36:56;;;;;;;30.42;11.93;;;;;;;7.56;100.00;103130.91;6252587;28;20049;-77
2021/12/16 06:39:58;;;;;;;32.65;11.77;;;;;;;7.52;100.00;103126.56;6246905;28;20045;-77
2021/12/16 06:43:01;;;;;;;25.30;10.75;;;;;;;7.53;100.00;103133.53;6247168;28;20057;-77
2021/12/16 06:46:09;;;;;;;31.52;12.45;;;;;;;7.53;100.00;103131.78;6248075;28;20049;-77
2021/12/16 06:49:12;;;;;;;27.20;11.85;;;;;;;7.54;100.00;103122.19;6247037;28;20049;-77
2021/12/16 06:52:17;;;;;;;29.50;11.65;;;;;;;7.55;100.00;103123.94;6247831;28;20054;-78
2021/12/16 06:55:25;;;;;;;25.38;11.45;;;;;;;7.56;100.00;103126.53;6247174;28;20080;-78
2021/12/16 06:58:32;;;;;;;32.55;10.77;;;;;;;7.56;100.00;103120.44;6247863;28;20123;-77
2021/12/16 07:01:39;;;;;;;30.60;11.93;;;;;;;7.56;100.00;103118.69;6247206;28;20119;-77
2021/12/16 07:04:43;;;;;;;34.85;10.70;;;;;;;7.55;100.00;103121.31;6247634;28;20136;-78
2021/12/16 07:07:45;;;;;;;29.00;12.25;;;;;;;7.54;100.00;103125.69;6248228;28;20056;-78
2021/12/16 07:10:48;;;;;;;45.83;13.85;;;;;;;7.53;100.00;103134.38;6247552;28;20393;-78
2021/12/16 07:13:57;;;;;;;27.27;11.38;;;;;;;7.60;100.00;103140.50;6252104;28;20056;-77
2021/12/16 07:16:59;;;;;;;30.83;11.15;;;;;;;7.56;100.00;103144.00;6252410;28;20056;-77
2021/12/16 07:20:01;;;;;;;25.73;11.05;;;;;;;7.58;100.00;103147.47;6252024;28;20050;-78
2021/12/16 07:23:05;;;;;;;27.77;10.38;;;;;;;7.59;100.00;103165.81;6252774;28;20057;-77
2021/12/16 07:26:06;;;;;;;25.40;10.88;;;;;;;7.62;100.00;103167.53;6252732;28;20064;-78
2021/12/16 07:29:08;;;;;;;25.73;9.85;;;;;;;7.63;100.00;103172.78;6250384;28;20397;-78
2021/12/16 07:32:11;;;;;;;32.35;11.85;;;;;;;7.67;100.00;103185.81;6251749;28;20401;-78
2021/12/16 07:35:16;;;;;;;31.67;11.20;;;;;;;7.63;100.00;103188.47;6251960;28;20451;-78
2021/12/16 07:38:18;;;;;;;27.67;11.25;;;;;;;7.64;100.00;103202.44;6251843;28;20053;-78
2021/12/16 07:41:21;;;;;;;30.10;11.50;;;;;;;7.63;100.00;103211.16;6251997;28;20057;-78
2021/12/16 07:44:23;;;;;;;26.45;9.85;;;;;;;7.62;100.00;103212.88;6260390;28;20049;-78
2021/12/16 07:47:26;;;;;;;28.05;11.35;;;;;;;7.71;100.00;103211.13;6260307;28;20042;-78
2021/12/16 07:50:28;;;;;;;25.17;10.98;;;;;;;7.69;100.00;103215.50;6271025;28;20041;-78
2021/12/16 07:53:29;;;;;;;25.52;9.88;;;;;;;7.67;100.00;103223.34;6267609;28;20060;-78
2021/12/16 07:56:32;;;;;;;26.83;10.80;;;;;;;7.67;100.00;103233.81;6258574;28;20049;-78
2021/12/16 07:59:35;;;;;;;34.15;11.95;;;;;;;7.69;100.00;103239.06;6250688;28;20053;-72
2021/12/16 08:02:38;;;;;;;32.05;11.02;;;;;;;7.73;100.00;103236.44;6252555;28;20053;-78
2021/12/16 08:05:45;;;;;;;26.73;11.48;;;;;;;7.77;100.00;103239.94;6268013;28;20055;-78
2021/12/16 08:08:47;;;;;;;31.83;11.18;;;;;;;7.71;100.00;103242.53;6264409;28;20420;-77
2021/12/16 08:11:50;;;;;;;26.95;10.55;;;;;;;7.70;100.00;103249.50;6258764;28;20048;-77
2021/12/16 08:14:53;;;;;;;32.67;11.43;;;;;;;7.72;100.00;103246.88;6262496;28;20072;-78
2021/12/16 08:17:56;;;;;;;24.48;10.48;;;;;;;7.72;100.00;103247.78;6259576;28;20068;-78
2021/12/16 08:20:57;;;;;;;32.25;11.73;;;;;;;7.71;100.00;103256.47;6250438;28;20045;-78
2021/12/16 08:24:02;;;;;;;33.42;11.35;;;;;;;7.74;100.00;103250.38;6250324;28;20045;-78
2021/12/16 08:27:04;;;;;;;33.50;11.63;;;;;;;7.74;100.00;103256.50;6250316;28;20092;-78
2021/12/16 08:30:08;;;;;;;24.08;12.13;;;;;;;7.79;100.00;103252.13;6249881;28;20049;-77
2021/12/16 08:33:12;;;;;;;31.10;11.63;;;;;;;7.76;100.00;103259.97;6249133;28;20053;-77
2021/12/16 08:36:15;;;;;;;23.92;10.73;;;;;;;7.77;100.00;103268.72;6249111;28;20049;-78
2021/12/16 08:39:18;;;;;;;24.10;10.40;;;;;;;7.78;100.00;103270.47;6249042;28;20056;-77
2021/12/16 08:42:20;;;;;;;29.45;12.77;;;;;;;7.79;100.00;103259.09;6248840;28;20120;-77
2021/12/16 08:45:24;;;;;;;24.20;10.98;;;;;;;7.80;100.00;103271.31;6248757;28;20053;-77
2021/12/16 08:48:27;;;;;;;25.17;10.13;;;;;;;7.81;100.00;103280.91;6248587;28;20046;-77
2021/12/16 08:51:32;;;;;;;21.75;9.70;;;;;;;7.82;100.00;103282.66;6250222;28;20401;-78
2021/12/16 08:54:34;;;;;;;24.05;9.85;;;;;;;7.80;100.00;103284.41;6250366;28;20052;-78
2021/12/16 08:57:37;;;;;;;25.63;9.65;;;;;;;7.80;100.00;103274.81;6248496;28;20053;-78
2021/12/16 09:00:49;;;;;;;25.65;9.07;;;;;;;7.78;100.00;103284.41;6248460;28;20045;-77
2021/12/16 09:03:54;;;;;;;25.38;10.38;;;;;;;7.72;100.00;103286.16;6248611;28;20056;-77
2021/12/16 09:06:58;;;;;;;31.15;10.73;;;;;;;7.71;100.00;103284.41;6248855;28;20056;-77
2021/12/16 09:10:00;;;;;;;24.63;10.40;;;;;;;7.69;100.00;103287.03;6248021;28;20049;-77
2021/12/16 09:13:04;;;;;;;23.42;10.60;;;;;;;7.71;100.00;103300.13;6247913;28;20053;-77
2021/12/16 09:16:08;;;;;;;27.38;10.23;;;;;;;7.74;100.00;103302.75;6247662;28;20049;-78
2021/12/16 09:19:11;;;;;;;24.52;11.30;;;;;;;7.76;100.00;103298.34;6247897;28;20111;-77
2021/12/16 09:22:15;;;;;;;24.45;10.00;;;;;;;7.74;100.00;103297.50;6248309;28;20056;-77
2021/12/16 09:25:17;;;;;;;30.33;11.70;;;;;;;7.77;100.00;103308.84;6247197;28;20046;-77
2021/12/16 09:28:21;;;;;;;24.70;10.88;;;;;;;7.76;100.00;103301.84;6247974;28;20053;-77
2021/12/16 09:31:28;;;;;;;37.17;12.27;;;;;;;7.80;100.00;103310.56;6247324;28;20455;-78
2021/12/16 09:34:31;;;;;;;31.88;12.50;;;;;;;7.80;100.00;103315.81;6247020;28;20512;-77
2021/12/16 09:37:32;;;;;;;26.92;11.35;;;;;;;7.78;100.00;103318.44;6247611;28;20056;-77
2021/12/16 09:40:36;;;;;;;27.52;10.68;;;;;;;7.76;100.00;103324.53;6248733;28;20049;-77
2021/12/16 09:43:40;;;;;;;26.15;9.93;;;;;;;7.78;100.00;103318.44;6257746;28;20072;-77
2021/12/16 09:46:44;;;;;;;29.73;11.18;;;;;;;7.81;100.00;103330.63;6262953;28;20108;-76
2021/12/16 09:49:47;;;;;;;30.08;11.70;;;;;;;7.78;100.00;103331.53;6263502;28;20045;-77
2021/12/16 09:52:48;;;;;;;33.72;11.20;;;;;;;7.76;100.00;103340.25;6272060;28;20060;-76
2021/12/16 09:55:58;;;;;;;27.52;11.10;;;;;;;7.75;100.00;103354.22;6261718;28;20048;-77
2021/12/16 09:59:02;;;;;;;33.05;11.25;;;;;;;7.74;100.00;103349.84;6271389;28;20048;-77
2021/12/16 10:02:09;;;;;;;32.08;9.88;;;;;;;7.74;100.00;103342.00;6252336;28;20042;-76
2021/12/16 10:05:13;;;;;;;30.05;10.00;;;;;;;7.77;100.00;103350.72;6245746;28;20266;-77
2021/12/16 10:08:14;;;;;;;28.02;11.98;;;;;;;7.78;100.00;103357.72;6250949;28;20053;-77
2021/12/16 10:11:17;;;;;;;26.45;11.18;;;;;;;7.78;100.00;103349.00;6246534;28;20512;-77
2021/12/16 10:14:32;;;;;;;29.55;10.00;;;;;;;7.82;100.00;103351.59;6246907;28;20061;-77
2021/12/16 10:17:38;;;;;;;26.25;10.23;;;;;;;7.85;100.00;103353.34;6246881;28;20492;-77
2021/12/16 10:20:44;;;;;;;31.60;10.75;;;;;;;7.87;100.00;103352.47;6246880;28;20060;-77
2021/12/16 10:23:45;;;;;;;23.98;9.23;;;;;;;7.92;100.00;103342.00;6249804;28;20072;-77
2021/12/16 10:26:47;;;;;;;23.33;10.20;;;;;;;7.89;100.00;103337.63;6263068;28;20056;-77
2021/12/16 10:29:51;;;;;;;25.17;10.77;;;;;;;7.95;100.00;103342.00;6271165;28;20045;-77
2021/12/16 10:32:54;;;;;;;21.27;9.85;;;;;;;8.00;100.00;103339.38;6271917;28;20064;-77
2021/12/16 10:36:08;;;;;;;28.15;10.68;;;;;;;8.04;100.00;103346.34;6259872;28;20046;-77
2021/12/16 10:39:13;;;;;;;26.83;10.13;;;;;;;8.06;100.00;103341.97;6247034;28;20049;-77
2021/12/16 10:42:18;;;;;;;25.00;10.50;;;;;;;8.06;100.00;103334.13;6246709;28;20053;-77
2021/12/16 10:45:31;;;;;;;25.60;10.73;;;;;;;8.12;100.00;103334.97;6247439;28;20140;-77
2021/12/16 10:48:35;;;;;;;18.08;8.90;;;;;;;8.13;100.00;103331.50;6251813;28;20050;-77
2021/12/16 10:51:40;;;;;;;27.75;11.52;;;;;;;8.22;100.00;103329.72;6252086;28;20405;-77
2021/12/16 10:54:43;;;;;;;26.52;11.40;;;;;;;8.25;100.00;103327.09;6251693;28;20049;-76
2021/12/16 10:57:51;;;;;;;22.17;9.15;;;;;;;8.22;100.00;103322.75;6252523;28;20456;-77
2021/12/16 11:00:52;;;;;;;29.33;11.45;;;;;;;8.28;100.00;103327.97;6251053;28;20064;-77
2021/12/16 11:03:54;;;;;;;31.05;11.10;;;;;;;8.29;100.00;103334.97;6251136;28;20050;-77
2021/12/16 11:07:00;;;;;;;26.98;11.63;;;;;;;8.30;100.00;103333.19;6250969;28;20436;-77
2021/12/16 11:10:08;;;;;;;32.00;11.65;;;;;;;8.25;100.00;103346.31;6250917;28;20056;-77
2021/12/16 11:13:14;;;;;;;25.38;10.88;;;;;;;8.29;100.00;103339.31;6250836;28;20707;-77
2021/12/16 11:16:30;;;;;;;29.48;11.82;;;;;;;8.30;100.00;103347.16;6253544;28;20085;-77
2021/12/16 11:19:47;;;;;;;30.75;11.25;;;;;;;8.34;100.00;103355.91;6275427;28;20056;-77
2021/12/16 11:22:53;;;;;;;35.22;11.65;;;;;;;8.29;100.00;103366.41;6275575;28;20055;-77
2021/12/16 11:25:57;;;;;;;25.33;10.52;;;;;;;8.26;100.00;103371.63;6275418;28;20056;-78
2021/12/16 11:28:58;;;;;;;27.92;10.65;;;;;;;8.27;100.00;103376.00;6266781;28;20051;-78
2021/12/16 11:32:00;;;;;;;23.88;9.70;;;;;;;8.32;100.00;103382.13;6250175;28;20410;-77
2021/12/16 11:35:01;;;;;;;25.23;10.38;;;;;;;8.37;100.00;103390.88;6250620;28;20046;-77
2021/12/16 11:38:13;;;;;;;36.50;11.02;;;;;;;8.38;100.00;103396.97;6250505;28;20053;-77
2021/12/16 11:41:21;;;;;;;24.63;10.20;;;;;;;8.37;100.00;103388.25;6257228;28;20055;-77
2021/12/16 11:44:24;;;;;;;28.58;10.18;;;;;;;8.39;100.00;103385.63;6255906;28;20052;-76
2021/12/16 11:47:26;;;;;;;30.48;11.95;;;;;;;8.37;100.00;103379.53;6268161;28;20048;-77
2021/12/16 11:50:36;;;;;;;34.17;10.60;;;;;;;8.37;100.00;103380.41;6267214;28;20114;-78
2021/12/16 11:53:44;;;;;;;26.77;11.57;;;;;;;8.34;100.00;103387.34;6267649;28;20049;-77
2021/12/16 11:56:48;;;;;;;25.75;9.23;;;;;;;8.33;100.00;103383.00;6265246;28;20063;-76
2021/12/16 11:59:55;;;;;;;26.48;9.75;;;;;;;8.34;100.00;103379.47;6274767;28;20045;-75
2021/12/16 12:02:59;;;;;;;29.17;10.80;;;;;;;8.41;100.00;103385.63;6274694;28;20047;-75
2021/12/16 12:06:01;;;;;;;28.38;10.88;;;;;;;8.41;100.00;103385.63;6268994;28;20080;-76
2021/12/16 12:09:06;;;;;;;29.77;10.48;;;;;;;8.40;100.00;103387.34;6263311;28;20440;-76
2021/12/16 12:12:09;;;;;;;24.05;9.80;;;;;;;8.43;100.00;103392.59;6273790;28;20045;-76
2021/12/16 12:15:13;;;;;;;26.40;10.35;;;;;;;8.44;100.00;103388.22;6274143;28;20142;-76
2021/12/16 12:18:30;;;;;;;22.85;10.90;;;;;;;8.48;100.00;103389.97;6254903;28;20076;-77
2021/12/16 12:21:36;;;;;;;23.35;10.95;;;;;;;8.46;100.00;103390.00;6250609;28;20056;-76
2021/12/16 12:24:43;;;;;;;28.52;10.93;;;;;;;8.48;100.00;103385.59;6224738;28;20057;-76
2021/12/16 12:27:44;;;;;;;23.92;9.73;;;;;;;8.52;100.00;103386.47;6224750;28;20505;-76
2021/12/16 12:30:47;;;;;;;27.00;11.05;;;;;;;8.48;100.00;103392.59;6226158;28;20417;-77
2021/12/16 12:33:50;;;;;;;27.45;11.80;;;;;;;8.47;100.00;103391.72;6249154;28;20107;-77
2021/12/16 12:36:54;;;;;;;26.25;9.45;;;;;;;8.49;100.00;103400.44;6248918;28;20045;-76
2021/12/16 12:40:07;;;;;;;29.17;10.25;;;;;;;8.47;100.00;103393.47;6248888;28;20050;-76
2021/12/16 12:43:10;;;;;;;24.58;9.18;;;;;;;8.49;100.00;103386.47;6248943;28;20057;-75
2021/12/16 12:46:13;;;;;;;26.55;10.48;;;;;;;8.48;100.00;103387.34;6248801;28;20081;-76
2021/12/16 12:49:17;;;;;;;25.85;8.23;;;;;;;8.46;100.00;103387.38;6247753;28;20501;-76
2021/12/16 12:52:22;;;;;;;22.85;9.07;;;;;;;8.44;100.00;103389.09;6264301;28;20175;-76
2021/12/16 12:55:29;;;;;;;21.77;9.38;;;;;;;8.41;100.00;103389.13;6273077;28;20099;-76
2021/12/16 12:58:33;;;;;;;23.73;10.27;;;;;;;8.43;100.00;103386.50;6259616;28;20057;-76
2021/12/16 13:01:39;;;;;;;29.50;10.02;;;;;;;8.43;100.00;103382.13;6251840;28;20127;-76
2021/12/16 13:04:47;;;;;;;33.47;10.30;;;;;;;8.44;100.00;103380.38;6248731;28;20049;-75
2021/12/16 13:07:55;;;;;;;16.60;6.43;;;;;;;8.45;100.00;103369.91;6248107;28;20053;-76
2021/12/16 13:11:02;;;;;;;24.25;6.05;;;;;;;8.45;100.00;103369.00;6256050;28;20041;-76
2021/12/16 13:14:15;;;;;;;16.20;6.90;;;;;;;8.47;100.00;103356.78;6269408;28;20060;-76
2021/12/16 13:23:20;;;;;;;15.63;5.78;;;;;;;8.49;100.00;103357.63;6257895;28;20049;-76
2021/12/16 13:24:54;;;;;;;18.83;6.13;;;;;;;8.49;100.00;103365.50;6257247;28;20500;-76
2021/12/16 13:28:02;;;;;;;14.63;4.93;;;;;;;8.48;100.00;103363.75;6272632;28;20048;-76
2021/12/16 13:31:23;;;;;;;11.07;4.95;;;;;;;8.53;100.00;103368.13;6267956;28;20051;-75
2021/12/16 13:34:29;;;;;;;15.07;5.45;;;;;;;8.51;100.00;103366.38;6247660;28;20480;-76
2021/12/16 13:37:34;;;;;;;17.58;7.55;;;;;;;8.50;100.00;103368.16;6246254;28;20045;-75
2021/12/16 13:40:38;;;;;;;15.05;5.07;;;;;;;8.48;100.00;103376.88;6248082;28;20048;-76
2021/12/16 13:43:56;;;;;;;16.80;5.80;;;;;;;8.48;100.00;103374.25;6243405;28;20048;-76
2021/12/16 13:47:06;;;;;;;11.88;4.93;;;;;;;8.48;100.00;103382.13;6257424;28;20131;-74
2021/12/16 14:03:53;;;;;;;10.32;3.70;;;;;;;8.45;100.00;103403.97;6210854;28;20040;-75
2021/12/16 14:06:59;;;;;;;15.68;4.85;;;;;;;8.44;100.00;103396.09;6263262;28;20122;-74
2021/12/16 14:10:10;;;;;;;9.40;4.03;;;;;;;8.43;100.00;103400.47;6255538;28;20084;-74
2021/12/16 14:16:54;;;;;;;10.90;3.95;;;;;;;8.44;100.00;103420.53;6246687;28;20463;-77
2021/12/16 14:23:52;;;;;;;6.85;3.30;;;;;;;8.39;100.00;103422.31;6256801;28;20506;-77
2021/12/16 14:27:17;;;;;;;;;;;;;;;8.36;100.00;103431.06;6272422;28;20056;-77
2021/12/16 14:37:20;;;;;;;13.55;5.28;;;;;;;8.35;100.00;103431.88;6251978;28;20556;-77
2021/12/16 14:40:39;;;;;;;6.57;3.13;;;;;;;8.35;100.00;103437.13;6246805;28;20049;-77
2021/12/16 14:43:53;;;;;;;17.38;3.58;;;;;;;8.31;100.00;103429.25;6246917;28;20049;-77
2021/12/16 14:47:11;;;;;;;9.52;5.10;;;;;;;8.31;100.00;103437.13;6246951;28;20079;-74
2021/12/16 14:50:19;;;;;;;13.30;4.47;;;;;;;8.29;100.00;103436.25;6246217;28;20100;-76
2021/12/16 14:53:26;;;;;;;10.40;4.15;;;;;;;8.28;100.00;103438.00;6246774;28;20049;-76
2021/12/16 14:56:31;;;;;;;10.77;3.90;;;;;;;8.28;100.00;103443.25;6246750;28;20136;-75
2021/12/16 14:59:33;;;;;;;9.75;3.67;;;;;;;8.30;100.00;103446.72;6244980;28;20060;-74
2021/12/16 15:02:37;;;;;;;6.15;3.00;;;;;;;8.28;100.00;103451.09;6245759;28;20050;-77
2021/12/16 15:05:43;;;;;;;8.85;3.40;;;;;;;8.27;100.00;103458.97;6245813;28;20054;-78
2021/12/16 15:08:53;;;;;;;9.35;3.90;;;;;;;8.29;100.00;103457.22;6246808;28;20061;-78
2021/12/16 15:12:01;;;;;;;8.20;3.72;;;;;;;8.29;100.00;103460.72;6246708;28;20045;-78
2021/12/16 15:15:14;;;;;;;10.40;4.07;;;;;;;8.30;100.00;103467.69;6246980;28;20623;-78
2021/12/16 15:32:26;;;;;;;14.13;4.63;;;;;;;8.24;100.00;103474.69;6269609;28;20049;-77
2021/12/16 15:38:43;;;;;;;13.80;3.90;;;;;;;8.20;100.00;103476.44;6248963;28;20519;-77
2021/12/16 15:45:05;;;;;;;;;;;;;;;8.18;100.00;103472.94;6257467;28;20133;-77
2021/12/16 15:48:11;;;;;;;8.68;3.83;;;;;;;8.14;100.00;103481.66;6256361;28;20297;-77
2021/12/16 15:51:12;;;;;;;8.65;3.55;;;;;;;8.12;100.00;103489.50;6262638;28;20056;-77
2021/12/16 15:54:18;;;;;;;9.77;3.75;;;;;;;8.13;100.00;103485.16;6266789;28;20056;-78
2021/12/16 15:57:27;;;;;;;8.15;3.85;;;;;;;8.11;100.00;103490.38;6275293;28;20049;-77
2021/12/16 16:00:29;;;;;;;11.75;4.55;;;;;;;8.12;100.00;103505.22;6274685;28;20049;-77
2021/12/16 16:03:30;;;;;;;9.40;4.88;;;;;;;8.11;100.00;103508.72;6262070;28;20037;-77
2021/12/16 16:06:32;;;;;;;10.70;5.20;;;;;;;8.11;100.00;103518.31;6249336;28;20056;-76
2021/12/16 16:09:39;;;;;;;10.00;4.22;;;;;;;8.10;100.00;103516.59;6249513;28;20049;-77
2021/12/16 16:12:40;;;;;;;11.32;3.95;;;;;;;8.10;100.00;103514.84;6249631;28;20049;-77
2021/12/16 16:15:44;;;;;;;11.32;4.75;;;;;;;8.09;100.00;103522.72;6249784;28;20060;-76
2021/12/16 16:18:55;;;;;;;10.25;3.85;;;;;;;8.08;100.00;103534.03;6249554;28;20063;-76
2021/12/16 16:21:59;;;;;;;11.93;4.80;;;;;;;8.10;100.00;103535.78;6249351;28;20046;-77
2021/12/16 16:25:04;;;;;;;8.98;4.45;;;;;;;8.07;100.00;103545.38;6249370;28;20109;-77
2021/12/16 16:28:08;;;;;;;13.65;4.03;;;;;;;8.04;100.00;103548.88;6249644;28;20065;-77
2021/12/16 16:31:10;;;;;;;14.98;3.60;;;;;;;8.03;100.00;103549.72;6249002;28;20123;-76
2021/12/16 16:34:15;;;;;;;10.65;4.93;;;;;;;8.02;100.00;103557.59;6249097;28;20497;-77